Terminal Aerodrome Forecast
Issued by NWS

Home | Current Version | Previous Version | Text Only | Print | Product List | Glossary On
Versions: 1 2 3 4 5 6 7 8 9 10 11 12 13 14 15 16 17 18 19
000
FTUS41 KBTV 272329
TAFPBG
TAF
KPBG 272329Z 2800/2824 16005KT P6SM OVC020
     FM280600 17004KT P6SM OVC008
     FM281000 17004KT P6SM VCSH OVC008
     FM281500 17004KT P6SM VCSH OVC015
     FM282100 36004KT P6SM VCSH OVC015=

USA.gov is the U.S. government's official web portal to all federal, state and local government web resources and services.